sensor_id;sensor_type;location;lat;lon;timestamp;P1;durP1;ratioP1;P2;durP2;ratioP2
10446;SDS011;5271;44.422;26.092;2023-05-10T00:02:18;0.60;;;0.60;;
10446;SDS011;5271;44.422;26.092;2023-05-10T00:04:44;0.50;;;0.50;;
10446;SDS011;5271;44.422;26.092;2023-05-10T00:07:13;0.60;;;0.60;;
10446;SDS011;5271;44.422;26.092;2023-05-10T00:09:42;0.50;;;0.50;;
10446;SDS011;5271;44.422;26.092;2023-05-10T00:12:08;0.60;;;0.60;;
10446;SDS011;5271;44.422;26.092;2023-05-10T00:14:35;0.60;;;0.60;;
10446;SDS011;5271;44.422;26.092;2023-05-10T00:17:02;0.60;;;0.60;;
10446;SDS011;5271;44.422;26.092;2023-05-10T00:19:29;0.60;;;0.60;;
10446;SDS011;5271;44.422;26.092;2023-05-10T00:21:56;0.60;;;0.60;;
10446;SDS011;5271;44.422;26.092;2023-05-10T00:24:24;0.60;;;0.60;;
10446;SDS011;5271;44.422;26.092;2023-05-10T00:26:51;0.60;;;0.60;;
10446;SDS011;5271;44.422;26.092;2023-05-10T00:29:18;0.60;;;0.60;;
10446;SDS011;5271;44.422;26.092;2023-05-10T00:31:44;0.70;;;0.70;;
10446;SDS011;5271;44.422;26.092;2023-05-10T00:34:11;0.50;;;0.50;;
10446;SDS011;5271;44.422;26.092;2023-05-10T00:36:38;0.60;;;0.60;;
10446;SDS011;5271;44.422;26.092;2023-05-10T00:39:05;0.70;;;0.70;;
10446;SDS011;5271;44.422;26.092;2023-05-10T00:41:34;0.70;;;0.70;;
10446;SDS011;5271;44.422;26.092;2023-05-10T00:44:01;0.60;;;0.60;;
10446;SDS011;5271;44.422;26.092;2023-05-10T00:46:27;0.70;;;0.70;;
10446;SDS011;5271;44.422;26.092;2023-05-10T00:48:55;0.70;;;0.70;;
10446;SDS011;5271;44.422;26.092;2023-05-10T00:51:22;0.70;;;0.70;;
10446;SDS011;5271;44.422;26.092;2023-05-10T00:53:49;0.60;;;0.60;;
10446;SDS011;5271;44.422;26.092;2023-05-10T00:56:16;0.60;;;0.60;;
10446;SDS011;5271;44.422;26.092;2023-05-10T00:58:44;0.70;;;0.70;;
10446;SDS011;5271;44.422;26.092;2023-05-10T01:01:11;0.70;;;0.70;;
10446;SDS011;5271;44.422;26.092;2023-05-10T01:03:39;0.60;;;0.60;;
10446;SDS011;5271;44.422;26.092;2023-05-10T01:06:06;0.60;;;0.60;;
10446;SDS011;5271;44.422;26.092;2023-05-10T01:08:34;0.60;;;0.60;;
10446;SDS011;5271;44.422;26.092;2023-05-10T01:11:02;0.60;;;0.60;;
10446;SDS011;5271;44.422;26.092;2023-05-10T01:13:30;0.60;;;0.60;;
10446;SDS011;5271;44.422;26.092;2023-05-10T01:16:00;0.60;;;0.60;;
10446;SDS011;5271;44.422;26.092;2023-05-10T01:18:28;0.60;;;0.60;;
10446;SDS011;5271;44.422;26.092;2023-05-10T01:21:01;0.50;;;0.50;;
10446;SDS011;5271;44.422;26.092;2023-05-10T01:23:44;0.60;;;0.60;;
10446;SDS011;5271;44.422;26.092;2023-05-10T01:29:38;0.60;;;0.60;;
10446;SDS011;5271;44.422;26.092;2023-05-10T01:32:23;0.60;;;0.60;;
10446;SDS011;5271;44.422;26.092;2023-05-10T01:34:57;0.60;;;0.60;;
10446;SDS011;5271;44.422;26.092;2023-05-10T01:37:31;0.60;;;0.60;;
10446;SDS011;5271;44.422;26.092;2023-05-10T01:40:03;0.60;;;0.60;;
10446;SDS011;5271;44.422;26.092;2023-05-10T01:42:40;0.60;;;0.60;;
10446;SDS011;5271;44.422;26.092;2023-05-10T01:45:14;0.60;;;0.60;;
10446;SDS011;5271;44.422;26.092;2023-05-10T01:47:48;0.60;;;0.60;;
10446;SDS011;5271;44.422;26.092;2023-05-10T01:50:22;0.60;;;0.60;;
10446;SDS011;5271;44.422;26.092;2023-05-10T01:52:54;0.60;;;0.60;;
10446;SDS011;5271;44.422;26.092;2023-05-10T01:55:24;0.60;;;0.60;;
10446;SDS011;5271;44.422;26.092;2023-05-10T01:57:56;0.60;;;0.60;;
10446;SDS011;5271;44.422;26.092;2023-05-10T02:00:29;0.60;;;0.60;;
10446;SDS011;5271;44.422;26.092;2023-05-10T02:02:58;0.60;;;0.60;;
10446;SDS011;5271;44.422;26.092;2023-05-10T02:05:27;0.60;;;0.60;;
10446;SDS011;5271;44.422;26.092;2023-05-10T02:07:57;0.60;;;0.60;;
10446;SDS011;5271;44.422;26.092;2023-05-10T02:10:25;0.60;;;0.60;;
10446;SDS011;5271;44.422;26.092;2023-05-10T02:12:53;0.60;;;0.60;;
10446;SDS011;5271;44.422;26.092;2023-05-10T02:15:22;0.60;;;0.60;;
10446;SDS011;5271;44.422;26.092;2023-05-10T02:17:50;0.60;;;0.60;;
10446;SDS011;5271;44.422;26.092;2023-05-10T02:20:22;0.50;;;0.50;;
10446;SDS011;5271;44.422;26.092;2023-05-10T02:22:51;0.60;;;0.60;;
10446;SDS011;5271;44.422;26.092;2023-05-10T02:25:20;0.60;;;0.60;;
10446;SDS011;5271;44.422;26.092;2023-05-10T02:27:48;0.60;;;0.60;;
10446;SDS011;5271;44.422;26.092;2023-05-10T02:30:16;0.60;;;0.60;;
10446;SDS011;5271;44.422;26.092;2023-05-10T02:32:44;0.60;;;0.60;;
10446;SDS011;5271;44.422;26.092;2023-05-10T02:35:12;0.60;;;0.60;;
10446;SDS011;5271;44.422;26.092;2023-05-10T02:37:41;0.60;;;0.60;;
10446;SDS011;5271;44.422;26.092;2023-05-10T02:40:10;0.50;;;0.50;;
10446;SDS011;5271;44.422;26.092;2023-05-10T02:42:37;0.50;;;0.50;;
10446;SDS011;5271;44.422;26.092;2023-05-10T02:45:07;0.60;;;0.60;;
10446;SDS011;5271;44.422;26.092;2023-05-10T02:47:38;0.60;;;0.60;;
10446;SDS011;5271;44.422;26.092;2023-05-10T02:50:05;0.60;;;0.60;;
10446;SDS011;5271;44.422;26.092;2023-05-10T02:52:36;0.60;;;0.60;;
10446;SDS011;5271;44.422;26.092;2023-05-10T02:55:08;0.60;;;0.60;;
10446;SDS011;5271;44.422;26.092;2023-05-10T02:57:38;0.60;;;0.60;;
10446;SDS011;5271;44.422;26.092;2023-05-10T03:00:09;0.60;;;0.60;;
10446;SDS011;5271;44.422;26.092;2023-05-10T03:02:37;0.60;;;0.60;;
10446;SDS011;5271;44.422;26.092;2023-05-10T03:05:04;0.60;;;0.60;;
10446;SDS011;5271;44.422;26.092;2023-05-10T03:07:31;0.60;;;0.60;;
10446;SDS011;5271;44.422;26.092;2023-05-10T03:09:59;0.60;;;0.60;;
10446;SDS011;5271;44.422;26.092;2023-05-10T03:12:31;0.60;;;0.60;;
10446;SDS011;5271;44.422;26.092;2023-05-10T03:15:06;0.50;;;0.50;;
10446;SDS011;5271;44.422;26.092;2023-05-10T03:17:41;0.60;;;0.60;;
10446;SDS011;5271;44.422;26.092;2023-05-10T03:20:15;0.60;;;0.60;;
10446;SDS011;5271;44.422;26.092;2023-05-10T03:22:50;0.60;;;0.60;;
10446;SDS011;5271;44.422;26.092;2023-05-10T03:25:19;0.50;;;0.50;;
10446;SDS011;5271;44.422;26.092;2023-05-10T03:27:50;0.60;;;0.60;;
10446;SDS011;5271;44.422;26.092;2023-05-10T03:30:18;0.60;;;0.60;;
10446;SDS011;5271;44.422;26.092;2023-05-10T03:32:46;0.50;;;0.50;;
10446;SDS011;5271;44.422;26.092;2023-05-10T03:35:13;0.60;;;0.60;;
10446;SDS011;5271;44.422;26.092;2023-05-10T03:37:40;0.60;;;0.60;;
10446;SDS011;5271;44.422;26.092;2023-05-10T03:40:07;0.60;;;0.60;;
10446;SDS011;5271;44.422;26.092;2023-05-10T03:42:35;0.60;;;0.60;;
10446;SDS011;5271;44.422;26.092;2023-05-10T03:45:03;0.60;;;0.60;;
10446;SDS011;5271;44.422;26.092;2023-05-10T03:47:31;0.60;;;0.60;;
10446;SDS011;5271;44.422;26.092;2023-05-10T03:49:57;0.60;;;0.60;;
10446;SDS011;5271;44.422;26.092;2023-05-10T03:52:24;0.60;;;0.60;;
10446;SDS011;5271;44.422;26.092;2023-05-10T03:54:51;0.70;;;0.70;;
10446;SDS011;5271;44.422;26.092;2023-05-10T03:57:18;0.50;;;0.50;;
10446;SDS011;5271;44.422;26.092;2023-05-10T03:59:45;0.70;;;0.70;;
10446;SDS011;5271;44.422;26.092;2023-05-10T04:02:13;0.70;;;0.70;;
10446;SDS011;5271;44.422;26.092;2023-05-10T04:04:40;0.60;;;0.60;;
10446;SDS011;5271;44.422;26.092;2023-05-10T04:07:07;0.70;;;0.70;;
10446;SDS011;5271;44.422;26.092;2023-05-10T04:09:35;0.70;;;0.70;;
10446;SDS011;5271;44.422;26.092;2023-05-10T04:12:02;0.70;;;0.70;;
10446;SDS011;5271;44.422;26.092;2023-05-10T04:14:29;0.70;;;0.70;;
10446;SDS011;5271;44.422;26.092;2023-05-10T04:16:56;0.70;;;0.70;;
10446;SDS011;5271;44.422;26.092;2023-05-10T04:19:24;0.70;;;0.70;;
10446;SDS011;5271;44.422;26.092;2023-05-10T04:21:54;0.77;;;0.77;;
10446;SDS011;5271;44.422;26.092;2023-05-10T04:24:21;0.70;;;0.70;;
10446;SDS011;5271;44.422;26.092;2023-05-10T04:26:48;0.70;;;0.70;;
10446;SDS011;5271;44.422;26.092;2023-05-10T04:29:15;0.70;;;0.70;;
10446;SDS011;5271;44.422;26.092;2023-05-10T04:31:42;0.70;;;0.70;;
10446;SDS011;5271;44.422;26.092;2023-05-10T04:34:09;0.80;;;0.80;;
10446;SDS011;5271;44.422;26.092;2023-05-10T04:36:37;0.60;;;0.60;;
10446;SDS011;5271;44.422;26.092;2023-05-10T04:39:04;0.70;;;0.70;;
10446;SDS011;5271;44.422;26.092;2023-05-10T04:41:31;0.70;;;0.70;;
10446;SDS011;5271;44.422;26.092;2023-05-10T04:43:57;0.70;;;0.70;;
10446;SDS011;5271;44.422;26.092;2023-05-10T04:46:24;0.80;;;0.80;;
10446;SDS011;5271;44.422;26.092;2023-05-10T04:48:51;0.70;;;0.70;;
10446;SDS011;5271;44.422;26.092;2023-05-10T04:51:18;0.73;;;0.73;;
10446;SDS011;5271;44.422;26.092;2023-05-10T04:53:46;0.70;;;0.70;;
10446;SDS011;5271;44.422;26.092;2023-05-10T04:56:13;0.70;;;0.70;;
10446;SDS011;5271;44.422;26.092;2023-05-10T04:58:41;0.70;;;0.70;;
10446;SDS011;5271;44.422;26.092;2023-05-10T05:01:08;0.80;;;0.80;;
10446;SDS011;5271;44.422;26.092;2023-05-10T05:03:35;0.73;;;0.73;;
10446;SDS011;5271;44.422;26.092;2023-05-10T05:06:02;0.70;;;0.70;;
10446;SDS011;5271;44.422;26.092;2023-05-10T05:08:30;0.80;;;0.80;;
10446;SDS011;5271;44.422;26.092;2023-05-10T05:10:58;0.70;;;0.70;;
10446;SDS011;5271;44.422;26.092;2023-05-10T05:13:25;0.80;;;0.80;;
10446;SDS011;5271;44.422;26.092;2023-05-10T05:15:52;0.70;;;0.70;;
10446;SDS011;5271;44.422;26.092;2023-05-10T05:18:19;0.70;;;0.70;;
10446;SDS011;5271;44.422;26.092;2023-05-10T05:20:46;0.70;;;0.70;;
10446;SDS011;5271;44.422;26.092;2023-05-10T05:23:13;0.80;;;0.80;;
10446;SDS011;5271;44.422;26.092;2023-05-10T05:25:40;0.70;;;0.70;;
10446;SDS011;5271;44.422;26.092;2023-05-10T05:28:08;0.70;;;0.70;;
10446;SDS011;5271;44.422;26.092;2023-05-10T05:30:35;0.70;;;0.70;;
10446;SDS011;5271;44.422;26.092;2023-05-10T05:33:02;0.90;;;0.90;;
10446;SDS011;5271;44.422;26.092;2023-05-10T05:35:29;0.80;;;0.80;;
10446;SDS011;5271;44.422;26.092;2023-05-10T05:37:55;0.80;;;0.80;;
10446;SDS011;5271;44.422;26.092;2023-05-10T05:40:22;0.80;;;0.80;;
10446;SDS011;5271;44.422;26.092;2023-05-10T05:42:49;0.80;;;0.80;;
10446;SDS011;5271;44.422;26.092;2023-05-10T05:45:17;0.80;;;0.80;;
10446;SDS011;5271;44.422;26.092;2023-05-10T05:47:45;0.70;;;0.70;;
10446;SDS011;5271;44.422;26.092;2023-05-10T05:50:12;0.80;;;0.80;;
10446;SDS011;5271;44.422;26.092;2023-05-10T05:52:39;0.80;;;0.80;;
10446;SDS011;5271;44.422;26.092;2023-05-10T05:55:06;0.80;;;0.80;;
10446;SDS011;5271;44.422;26.092;2023-05-10T05:57:33;0.80;;;0.80;;
10446;SDS011;5271;44.422;26.092;2023-05-10T06:00:00;0.70;;;0.70;;
10446;SDS011;5271;44.422;26.092;2023-05-10T06:02:29;0.80;;;0.80;;
10446;SDS011;5271;44.422;26.092;2023-05-10T06:04:55;0.80;;;0.80;;
10446;SDS011;5271;44.422;26.092;2023-05-10T06:07:22;0.80;;;0.80;;
10446;SDS011;5271;44.422;26.092;2023-05-10T06:09:50;0.80;;;0.80;;
10446;SDS011;5271;44.422;26.092;2023-05-10T06:12:17;0.70;;;0.70;;
10446;SDS011;5271;44.422;26.092;2023-05-10T06:14:44;0.90;;;0.90;;
10446;SDS011;5271;44.422;26.092;2023-05-10T06:17:10;0.70;;;0.70;;
10446;SDS011;5271;44.422;26.092;2023-05-10T06:19:39;0.70;;;0.70;;
10446;SDS011;5271;44.422;26.092;2023-05-10T06:22:05;0.70;;;0.70;;
10446;SDS011;5271;44.422;26.092;2023-05-10T06:24:32;0.70;;;0.70;;
10446;SDS011;5271;44.422;26.092;2023-05-10T06:26:59;0.70;;;0.70;;
10446;SDS011;5271;44.422;26.092;2023-05-10T06:29:26;0.80;;;0.80;;
10446;SDS011;5271;44.422;26.092;2023-05-10T06:31:53;0.80;;;0.80;;
10446;SDS011;5271;44.422;26.092;2023-05-10T06:34:20;0.70;;;0.70;;
10446;SDS011;5271;44.422;26.092;2023-05-10T06:36:48;0.80;;;0.80;;
10446;SDS011;5271;44.422;26.092;2023-05-10T06:39:15;0.77;;;0.77;;
10446;SDS011;5271;44.422;26.092;2023-05-10T06:41:42;0.70;;;0.70;;
10446;SDS011;5271;44.422;26.092;2023-05-10T06:44:09;0.73;;;0.73;;
10446;SDS011;5271;44.422;26.092;2023-05-10T06:46:36;0.63;;;0.63;;
10446;SDS011;5271;44.422;26.092;2023-05-10T06:49:02;0.70;;;0.70;;
10446;SDS011;5271;44.422;26.092;2023-05-10T06:51:29;0.70;;;0.70;;
10446;SDS011;5271;44.422;26.092;2023-05-10T06:53:59;0.70;;;0.70;;
10446;SDS011;5271;44.422;26.092;2023-05-10T06:56:26;0.70;;;0.70;;
10446;SDS011;5271;44.422;26.092;2023-05-10T06:58:53;0.80;;;0.80;;
10446;SDS011;5271;44.422;26.092;2023-05-10T07:01:19;0.70;;;0.70;;
10446;SDS011;5271;44.422;26.092;2023-05-10T07:03:46;0.70;;;0.70;;
10446;SDS011;5271;44.422;26.092;2023-05-10T07:06:13;0.67;;;0.67;;
10446;SDS011;5271;44.422;26.092;2023-05-10T07:08:40;0.80;;;0.80;;
10446;SDS011;5271;44.422;26.092;2023-05-10T07:11:08;0.77;;;0.77;;
10446;SDS011;5271;44.422;26.092;2023-05-10T07:13:35;0.80;;;0.80;;
10446;SDS011;5271;44.422;26.092;2023-05-10T07:16:04;0.77;;;0.77;;
10446;SDS011;5271;44.422;26.092;2023-05-10T07:18:31;0.80;;;0.80;;
10446;SDS011;5271;44.422;26.092;2023-05-10T07:20:58;0.70;;;0.70;;
10446;SDS011;5271;44.422;26.092;2023-05-10T07:23:25;0.60;;;0.60;;
10446;SDS011;5271;44.422;26.092;2023-05-10T07:25:52;0.80;;;0.80;;
10446;SDS011;5271;44.422;26.092;2023-05-10T07:28:21;0.80;;;0.80;;
10446;SDS011;5271;44.422;26.092;2023-05-10T07:30:48;0.70;;;0.70;;
10446;SDS011;5271;44.422;26.092;2023-05-10T07:33:15;0.80;;;0.80;;
10446;SDS011;5271;44.422;26.092;2023-05-10T07:35:42;0.70;;;0.70;;
10446;SDS011;5271;44.422;26.092;2023-05-10T07:38:09;0.60;;;0.60;;
10446;SDS011;5271;44.422;26.092;2023-05-10T07:40:36;0.77;;;0.77;;
10446;SDS011;5271;44.422;26.092;2023-05-10T07:43:04;0.70;;;0.70;;
10446;SDS011;5271;44.422;26.092;2023-05-10T07:45:32;0.80;;;0.80;;
10446;SDS011;5271;44.422;26.092;2023-05-10T07:47:59;0.70;;;0.70;;
10446;SDS011;5271;44.422;26.092;2023-05-10T07:50:26;0.70;;;0.70;;
10446;SDS011;5271;44.422;26.092;2023-05-10T07:52:53;0.70;;;0.70;;
10446;SDS011;5271;44.422;26.092;2023-05-10T07:55:20;0.60;;;0.60;;
10446;SDS011;5271;44.422;26.092;2023-05-10T07:57:47;0.70;;;0.70;;
10446;SDS011;5271;44.422;26.092;2023-05-10T08:00:16;0.57;;;0.57;;
10446;SDS011;5271;44.422;26.092;2023-05-10T08:02:46;0.60;;;0.60;;
10446;SDS011;5271;44.422;26.092;2023-05-10T08:05:13;0.60;;;0.60;;
10446;SDS011;5271;44.422;26.092;2023-05-10T08:07:40;0.60;;;0.60;;
10446;SDS011;5271;44.422;26.092;2023-05-10T08:10:08;0.70;;;0.70;;
10446;SDS011;5271;44.422;26.092;2023-05-10T08:12:36;0.60;;;0.60;;
10446;SDS011;5271;44.422;26.092;2023-05-10T08:15:04;0.60;;;0.60;;
10446;SDS011;5271;44.422;26.092;2023-05-10T08:17:32;0.70;;;0.70;;
10446;SDS011;5271;44.422;26.092;2023-05-10T08:20:00;0.70;;;0.70;;
10446;SDS011;5271;44.422;26.092;2023-05-10T08:22:27;0.70;;;0.70;;
10446;SDS011;5271;44.422;26.092;2023-05-10T08:24:54;0.70;;;0.70;;
10446;SDS011;5271;44.422;26.092;2023-05-10T08:27:21;0.60;;;0.60;;
10446;SDS011;5271;44.422;26.092;2023-05-10T08:29:48;0.73;;;0.73;;
10446;SDS011;5271;44.422;26.092;2023-05-10T08:32:14;0.80;;;0.80;;
10446;SDS011;5271;44.422;26.092;2023-05-10T08:34:41;0.70;;;0.70;;
10446;SDS011;5271;44.422;26.092;2023-05-10T08:37:09;0.70;;;0.70;;
10446;SDS011;5271;44.422;26.092;2023-05-10T08:39:38;0.70;;;0.70;;
10446;SDS011;5271;44.422;26.092;2023-05-10T08:42:05;0.67;;;0.67;;
10446;SDS011;5271;44.422;26.092;2023-05-10T08:44:34;0.70;;;0.70;;
10446;SDS011;5271;44.422;26.092;2023-05-10T08:47:02;0.70;;;0.70;;
10446;SDS011;5271;44.422;26.092;2023-05-10T08:49:32;0.70;;;0.70;;
10446;SDS011;5271;44.422;26.092;2023-05-10T08:52:00;0.60;;;0.60;;
10446;SDS011;5271;44.422;26.092;2023-05-10T08:54:32;0.60;;;0.60;;
10446;SDS011;5271;44.422;26.092;2023-05-10T08:56:59;0.60;;;0.60;;
10446;SDS011;5271;44.422;26.092;2023-05-10T08:59:27;0.70;;;0.70;;
10446;SDS011;5271;44.422;26.092;2023-05-10T09:01:55;0.70;;;0.70;;
10446;SDS011;5271;44.422;26.092;2023-05-10T09:04:23;0.70;;;0.70;;
10446;SDS011;5271;44.422;26.092;2023-05-10T09:06:50;0.80;;;0.80;;
10446;SDS011;5271;44.422;26.092;2023-05-10T09:09:17;0.70;;;0.70;;
10446;SDS011;5271;44.422;26.092;2023-05-10T09:11:47;0.60;;;0.60;;
10446;SDS011;5271;44.422;26.092;2023-05-10T09:14:14;0.70;;;0.70;;
10446;SDS011;5271;44.422;26.092;2023-05-10T09:16:42;0.70;;;0.70;;
10446;SDS011;5271;44.422;26.092;2023-05-10T09:19:09;0.70;;;0.70;;
10446;SDS011;5271;44.422;26.092;2023-05-10T09:21:36;0.70;;;0.70;;
10446;SDS011;5271;44.422;26.092;2023-05-10T09:24:04;0.80;;;0.80;;
10446;SDS011;5271;44.422;26.092;2023-05-10T09:26:32;0.70;;;0.70;;
10446;SDS011;5271;44.422;26.092;2023-05-10T09:29:02;0.80;;;0.80;;
10446;SDS011;5271;44.422;26.092;2023-05-10T09:31:45;0.70;;;0.70;;
10446;SDS011;5271;44.422;26.092;2023-05-10T09:34:16;0.60;;;0.60;;
10446;SDS011;5271;44.422;26.092;2023-05-10T09:36:51;0.70;;;0.70;;
10446;SDS011;5271;44.422;26.092;2023-05-10T09:39:19;0.70;;;0.70;;
10446;SDS011;5271;44.422;26.092;2023-05-10T09:41:46;0.70;;;0.70;;
10446;SDS011;5271;44.422;26.092;2023-05-10T09:44:17;0.70;;;0.70;;
10446;SDS011;5271;44.422;26.092;2023-05-10T09:46:48;0.70;;;0.70;;
10446;SDS011;5271;44.422;26.092;2023-05-10T09:49:17;0.70;;;0.70;;
10446;SDS011;5271;44.422;26.092;2023-05-10T09:51:44;0.60;;;0.60;;
10446;SDS011;5271;44.422;26.092;2023-05-10T09:54:11;0.60;;;0.60;;
10446;SDS011;5271;44.422;26.092;2023-05-10T09:56:39;0.70;;;0.70;;
10446;SDS011;5271;44.422;26.092;2023-05-10T09:59:07;0.60;;;0.60;;
10446;SDS011;5271;44.422;26.092;2023-05-10T10:01:36;0.70;;;0.70;;
10446;SDS011;5271;44.422;26.092;2023-05-10T10:04:04;0.70;;;0.70;;
10446;SDS011;5271;44.422;26.092;2023-05-10T10:06:35;0.70;;;0.70;;
10446;SDS011;5271;44.422;26.092;2023-05-10T10:09:03;0.60;;;0.60;;
10446;SDS011;5271;44.422;26.092;2023-05-10T10:11:30;0.60;;;0.60;;
10446;SDS011;5271;44.422;26.092;2023-05-10T10:13:57;0.70;;;0.70;;
10446;SDS011;5271;44.422;26.092;2023-05-10T10:16:24;0.60;;;0.60;;
10446;SDS011;5271;44.422;26.092;2023-05-10T10:18:54;0.70;;;0.70;;
10446;SDS011;5271;44.422;26.092;2023-05-10T10:21:21;0.60;;;0.60;;
10446;SDS011;5271;44.422;26.092;2023-05-10T10:23:48;0.60;;;0.60;;
10446;SDS011;5271;44.422;26.092;2023-05-10T10:26:15;0.60;;;0.60;;
10446;SDS011;5271;44.422;26.092;2023-05-10T10:28:47;0.67;;;0.67;;
10446;SDS011;5271;44.422;26.092;2023-05-10T10:31:20;0.60;;;0.60;;
10446;SDS011;5271;44.422;26.092;2023-05-10T10:33:59;0.70;;;0.70;;
10446;SDS011;5271;44.422;26.092;2023-05-10T10:36:27;0.60;;;0.60;;
10446;SDS011;5271;44.422;26.092;2023-05-10T10:38:58;0.60;;;0.60;;
10446;SDS011;5271;44.422;26.092;2023-05-10T10:41:30;0.60;;;0.60;;
10446;SDS011;5271;44.422;26.092;2023-05-10T10:49:51;0.67;;;0.67;;
10446;SDS011;5271;44.422;26.092;2023-05-10T10:52:30;0.60;;;0.60;;
10446;SDS011;5271;44.422;26.092;2023-05-10T10:54:59;0.70;;;0.70;;
10446;SDS011;5271;44.422;26.092;2023-05-10T10:57:28;0.60;;;0.60;;
10446;SDS011;5271;44.422;26.092;2023-05-10T11:02:45;0.50;;;0.50;;
10446;SDS011;5271;44.422;26.092;2023-05-10T11:05:24;0.60;;;0.60;;
10446;SDS011;5271;44.422;26.092;2023-05-10T11:07:59;0.60;;;0.60;;
10446;SDS011;5271;44.422;26.092;2023-05-10T11:10:32;0.60;;;0.60;;
10446;SDS011;5271;44.422;26.092;2023-05-10T11:12:59;0.60;;;0.60;;
10446;SDS011;5271;44.422;26.092;2023-05-10T11:15:30;0.60;;;0.60;;
10446;SDS011;5271;44.422;26.092;2023-05-10T11:17:58;0.60;;;0.60;;
10446;SDS011;5271;44.422;26.092;2023-05-10T11:20:28;0.60;;;0.60;;
10446;SDS011;5271;44.422;26.092;2023-05-10T11:23:11;0.60;;;0.60;;
10446;SDS011;5271;44.422;26.092;2023-05-10T11:25:41;0.60;;;0.60;;
10446;SDS011;5271;44.422;26.092;2023-05-10T11:28:09;0.53;;;0.53;;
10446;SDS011;5271;44.422;26.092;2023-05-10T11:30:37;0.50;;;0.50;;
10446;SDS011;5271;44.422;26.092;2023-05-10T11:33:04;0.60;;;0.60;;
10446;SDS011;5271;44.422;26.092;2023-05-10T11:35:37;0.60;;;0.60;;
10446;SDS011;5271;44.422;26.092;2023-05-10T11:38:05;0.50;;;0.50;;
10446;SDS011;5271;44.422;26.092;2023-05-10T11:40:33;0.60;;;0.60;;
10446;SDS011;5271;44.422;26.092;2023-05-10T11:43:00;0.60;;;0.60;;
10446;SDS011;5271;44.422;26.092;2023-05-10T11:45:27;0.60;;;0.60;;
10446;SDS011;5271;44.422;26.092;2023-05-10T11:47:56;0.60;;;0.60;;
10446;SDS011;5271;44.422;26.092;2023-05-10T11:50:24;0.60;;;0.60;;
10446;SDS011;5271;44.422;26.092;2023-05-10T11:52:52;0.60;;;0.60;;
10446;SDS011;5271;44.422;26.092;2023-05-10T11:55:20;0.60;;;0.60;;
10446;SDS011;5271;44.422;26.092;2023-05-10T11:57:47;0.60;;;0.60;;
10446;SDS011;5271;44.422;26.092;2023-05-10T12:00:17;0.50;;;0.50;;
10446;SDS011;5271;44.422;26.092;2023-05-10T12:02:44;0.50;;;0.50;;
10446;SDS011;5271;44.422;26.092;2023-05-10T12:05:11;0.60;;;0.60;;
10446;SDS011;5271;44.422;26.092;2023-05-10T12:07:38;0.60;;;0.60;;
10446;SDS011;5271;44.422;26.092;2023-05-10T12:10:07;0.60;;;0.60;;
10446;SDS011;5271;44.422;26.092;2023-05-10T12:12:39;0.60;;;0.60;;
10446;SDS011;5271;44.422;26.092;2023-05-10T12:15:10;0.60;;;0.60;;
10446;SDS011;5271;44.422;26.092;2023-05-10T12:17:38;0.57;;;0.57;;
10446;SDS011;5271;44.422;26.092;2023-05-10T12:20:18;0.50;;;0.50;;
10446;SDS011;5271;44.422;26.092;2023-05-10T12:22:47;0.50;;;0.50;;
10446;SDS011;5271;44.422;26.092;2023-05-10T12:25:17;0.50;;;0.50;;
10446;SDS011;5271;44.422;26.092;2023-05-10T12:27:48;0.50;;;0.50;;
10446;SDS011;5271;44.422;26.092;2023-05-10T12:30:20;0.53;;;0.53;;
10446;SDS011;5271;44.422;26.092;2023-05-10T12:32:48;0.50;;;0.50;;
10446;SDS011;5271;44.422;26.092;2023-05-10T12:35:15;0.50;;;0.50;;
10446;SDS011;5271;44.422;26.092;2023-05-10T12:37:44;0.50;;;0.50;;
10446;SDS011;5271;44.422;26.092;2023-05-10T12:40:11;0.60;;;0.60;;
10446;SDS011;5271;44.422;26.092;2023-05-10T12:42:39;0.53;;;0.53;;
10446;SDS011;5271;44.422;26.092;2023-05-10T12:45:07;0.50;;;0.50;;
10446;SDS011;5271;44.422;26.092;2023-05-10T12:47:34;0.50;;;0.50;;
10446;SDS011;5271;44.422;26.092;2023-05-10T12:50:02;0.60;;;0.60;;
10446;SDS011;5271;44.422;26.092;2023-05-10T12:52:30;0.50;;;0.50;;
10446;SDS011;5271;44.422;26.092;2023-05-10T12:54:58;0.57;;;0.57;;
10446;SDS011;5271;44.422;26.092;2023-05-10T12:57:25;0.50;;;0.50;;
10446;SDS011;5271;44.422;26.092;2023-05-10T12:59:53;0.50;;;0.50;;
10446;SDS011;5271;44.422;26.092;2023-05-10T13:02:20;0.50;;;0.50;;
10446;SDS011;5271;44.422;26.092;2023-05-10T13:04:48;0.40;;;0.40;;
10446;SDS011;5271;44.422;26.092;2023-05-10T13:07:15;0.50;;;0.50;;
10446;SDS011;5271;44.422;26.092;2023-05-10T13:09:42;0.50;;;0.50;;
10446;SDS011;5271;44.422;26.092;2023-05-10T13:12:09;0.50;;;0.50;;
10446;SDS011;5271;44.422;26.092;2023-05-10T13:14:36;0.43;;;0.43;;
10446;SDS011;5271;44.422;26.092;2023-05-10T13:17:04;0.50;;;0.50;;
10446;SDS011;5271;44.422;26.092;2023-05-10T13:19:31;0.50;;;0.50;;
10446;SDS011;5271;44.422;26.092;2023-05-10T13:21:57;0.50;;;0.50;;
10446;SDS011;5271;44.422;26.092;2023-05-10T13:24:24;0.50;;;0.50;;
10446;SDS011;5271;44.422;26.092;2023-05-10T13:26:51;0.40;;;0.40;;
10446;SDS011;5271;44.422;26.092;2023-05-10T13:29:18;0.50;;;0.50;;
10446;SDS011;5271;44.422;26.092;2023-05-10T13:31:46;0.50;;;0.50;;
10446;SDS011;5271;44.422;26.092;2023-05-10T13:34:14;0.60;;;0.60;;
10446;SDS011;5271;44.422;26.092;2023-05-10T13:36:41;0.50;;;0.50;;
10446;SDS011;5271;44.422;26.092;2023-05-10T13:39:07;0.50;;;0.50;;
10446;SDS011;5271;44.422;26.092;2023-05-10T13:41:34;0.50;;;0.50;;
10446;SDS011;5271;44.422;26.092;2023-05-10T13:44:01;0.50;;;0.50;;
10446;SDS011;5271;44.422;26.092;2023-05-10T13:46:28;0.40;;;0.40;;
10446;SDS011;5271;44.422;26.092;2023-05-10T13:48:55;0.40;;;0.40;;
10446;SDS011;5271;44.422;26.092;2023-05-10T13:51:24;0.40;;;0.40;;
10446;SDS011;5271;44.422;26.092;2023-05-10T13:53:51;0.40;;;0.40;;
10446;SDS011;5271;44.422;26.092;2023-05-10T13:56:18;0.40;;;0.40;;
10446;SDS011;5271;44.422;26.092;2023-05-10T13:58:44;0.40;;;0.40;;
10446;SDS011;5271;44.422;26.092;2023-05-10T14:01:12;0.50;;;0.50;;
10446;SDS011;5271;44.422;26.092;2023-05-10T14:03:39;0.40;;;0.40;;
10446;SDS011;5271;44.422;26.092;2023-05-10T14:06:06;0.50;;;0.50;;
10446;SDS011;5271;44.422;26.092;2023-05-10T14:08:35;0.47;;;0.47;;
10446;SDS011;5271;44.422;26.092;2023-05-10T14:11:02;0.50;;;0.50;;
10446;SDS011;5271;44.422;26.092;2023-05-10T14:13:29;0.50;;;0.50;;
10446;SDS011;5271;44.422;26.092;2023-05-10T14:15:55;0.50;;;0.50;;
10446;SDS011;5271;44.422;26.092;2023-05-10T14:18:23;0.40;;;0.40;;
10446;SDS011;5271;44.422;26.092;2023-05-10T14:20:51;0.50;;;0.50;;
10446;SDS011;5271;44.422;26.092;2023-05-10T14:23:17;0.50;;;0.50;;
10446;SDS011;5271;44.422;26.092;2023-05-10T14:25:50;0.50;;;0.50;;
10446;SDS011;5271;44.422;26.092;2023-05-10T14:28:17;0.50;;;0.50;;
10446;SDS011;5271;44.422;26.092;2023-05-10T14:30:45;0.50;;;0.50;;
10446;SDS011;5271;44.422;26.092;2023-05-10T14:33:12;0.50;;;0.50;;
10446;SDS011;5271;44.422;26.092;2023-05-10T14:35:39;0.40;;;0.40;;
10446;SDS011;5271;44.422;26.092;2023-05-10T14:38:06;0.40;;;0.40;;
10446;SDS011;5271;44.422;26.092;2023-05-10T14:40:33;0.50;;;0.50;;
10446;SDS011;5271;44.422;26.092;2023-05-10T14:43:01;0.40;;;0.40;;
10446;SDS011;5271;44.422;26.092;2023-05-10T14:45:28;0.40;;;0.40;;
10446;SDS011;5271;44.422;26.092;2023-05-10T14:47:55;0.40;;;0.40;;
10446;SDS011;5271;44.422;26.092;2023-05-10T14:50:22;0.40;;;0.40;;
10446;SDS011;5271;44.422;26.092;2023-05-10T14:52:49;0.40;;;0.40;;
10446;SDS011;5271;44.422;26.092;2023-05-10T14:55:15;0.40;;;0.40;;
10446;SDS011;5271;44.422;26.092;2023-05-10T14:57:42;0.43;;;0.43;;
10446;SDS011;5271;44.422;26.092;2023-05-10T15:00:14;0.40;;;0.40;;
10446;SDS011;5271;44.422;26.092;2023-05-10T15:02:42;0.40;;;0.40;;
10446;SDS011;5271;44.422;26.092;2023-05-10T15:05:08;0.30;;;0.30;;
10446;SDS011;5271;44.422;26.092;2023-05-10T15:07:35;0.40;;;0.40;;